Terminal Aerodrome Forecast
Issued by NWS Wilmington, NC

Home | Current Version | Previous Version | Text Only | Print | Product List | Glossary On
Versions: 1 2 3 4 5 6 7 8 9 10 11 12 13 14 15 16 17 18 19 20 21 22
000
FTUS42 KILM 040535
TAFILM
TAF
KILM 040535Z 0406/0506 22007KT P6SM VCSH FEW006 SCT015 BKN050
      TEMPO 0406/0410 4SM BR SCT015
     FM041000 25003KT 3SM BR VCSH SCT015
     FM041400 26009G17KT P6SM BKN050
     FM042100 24011G18KT P6SM SCT050 PROB30 0421/0424 4SM SHRA
      BKN050
     FM050300 26003KT 4SM BR SKC=

USA.gov is the U.S. government's official web portal to all federal, state and local government web resources and services.